Time;durP1;ratioP1;P1;durP2;ratioP2;P2;SDS_P1;SDS_P2;PMS_P1;PMS_P2;Temp;Humidity;BMP_temperature;BMP_pressure;BME280_temperature;BME280_humidity;BME280_pressure;Samples;Min_cycle;Max_cycle;Signal;HPM_P1;HPM_P2
2022/01/21 00:00:00;;;;;;;10.70;4.37;;;;;;;-1.99;97.87;98892.16;1736856;82;21301;-71
2022/01/21 00:02:28;;;;;;;9.10;3.60;;;;;;;-2.04;97.86;98888.75;1724983;82;21617;-72
2022/01/21 00:04:56;;;;;;;9.13;4.22;;;;;;;-2.08;98.08;98889.63;1699738;83;21022;-71
2022/01/21 00:07:22;;;;;;;8.35;3.35;;;;;;;-2.09;98.57;98894.38;1712546;83;21116;-73
2022/01/21 00:09:49;;;;;;;12.68;4.28;;;;;;;-2.14;98.61;98899.97;1712025;82;21109;-71
2022/01/21 00:12:15;;;;;;;11.05;4.08;;;;;;;-2.14;99.36;98896.98;1711935;82;21203;-70
2022/01/21 00:14:43;;;;;;;9.10;4.33;;;;;;;-2.20;98.85;98906.48;1712047;82;21061;-70
2022/01/21 00:17:10;;;;;;;11.45;4.30;;;;;;;-2.24;98.73;98908.64;1712129;82;21525;-69
2022/01/21 00:19:41;;;;;;;7.67;3.65;;;;;;;-2.26;98.84;98907.78;1711976;83;21075;-69
2022/01/21 00:30:10;;;;;;;10.70;4.92;;;;;;;-2.30;99.54;98901.80;1712022;83;21142;-71
2022/01/21 00:30:13;;;;;;;13.53;4.70;;;;;;;-2.33;100.00;98901.80;1703945;84;21541;-70
2022/01/21 00:32:47;;;;;;;12.80;4.03;;;;;;;-2.35;100.00;98891.92;1704013;84;21645;-70
2022/01/21 00:35:16;;;;;;;10.48;4.55;;;;;;;-2.38;100.00;98891.50;1704237;83;21473;-69
2022/01/21 00:37:44;;;;;;;10.80;4.95;;;;;;;-2.42;99.69;98881.22;1704309;83;21334;-69
2022/01/21 00:40:15;;;;;;;10.72;4.53;;;;;;;-2.45;99.64;98887.25;1664782;83;21080;-70
2022/01/21 00:45:15;;;;;;;11.35;4.62;;;;;;;-2.49;100.00;98889.41;1661625;85;21085;-70
2022/01/21 00:47:42;;;;;;;8.55;4.55;;;;;;;-2.51;100.00;98887.70;1671793;84;21041;-72
2022/01/21 00:50:09;;;;;;;10.15;4.70;;;;;;;-2.53;99.88;98889.02;1688828;84;21859;-71
2022/01/21 00:52:36;;;;;;;9.90;4.97;;;;;;;-2.55;100.00;98888.16;1717448;83;21065;-70
2022/01/21 00:55:05;;;;;;;9.75;4.85;;;;;;;-2.50;100.00;98899.30;1717324;83;21553;-71
2022/01/21 00:57:32;;;;;;;8.28;4.37;;;;;;;-2.48;100.00;98885.98;1717539;82;21584;-70
2022/01/21 00:59:59;;;;;;;8.95;4.33;;;;;;;-2.44;100.00;98891.55;1717626;83;21100;-70
2022/01/21 01:02:26;;;;;;;9.83;4.75;;;;;;;-2.44;100.00;98896.71;1680413;85;21144;-73
2022/01/21 01:04:53;;;;;;;9.50;4.95;;;;;;;-2.43;100.00;98889.39;1717684;82;21065;-71
2022/01/21 01:07:19;;;;;;;11.35;5.28;;;;;;;-2.43;100.00;98895.83;1680781;85;21091;-72
2022/01/21 01:09:51;;;;;;;10.38;5.28;;;;;;;-2.42;100.00;98900.11;1680968;85;21097;-70
2022/01/21 01:12:29;;;;;;;14.13;6.05;;;;;;;-2.44;100.00;98900.58;1716931;82;21073;-69
2022/01/21 01:20:08;;;;;;;16.67;5.90;;;;;;;-2.51;98.15;98897.57;1676553;85;21069;-71
2022/01/21 01:22:52;;;;;;;14.85;5.97;;;;;;;-2.54;97.48;98897.59;1717683;83;21067;-70
2022/01/21 01:27:57;;;;;;;14.65;6.72;;;;;;;-2.57;97.25;98897.62;1717466;83;21180;-71
2022/01/21 01:30:27;;;;;;;11.55;4.92;;;;;;;-2.59;98.53;98909.66;1717380;83;21109;-70
2022/01/21 01:32:59;;;;;;;11.48;6.00;;;;;;;-2.62;95.75;98912.25;1717398;82;21101;-68
2022/01/21 01:35:28;;;;;;;11.88;5.03;;;;;;;-2.66;96.33;98902.37;1716546;83;21127;-68
2022/01/21 01:40:46;;;;;;;8.65;4.45;;;;;;;-2.71;94.97;98891.63;1679146;85;21107;-68
2022/01/21 01:50:59;;;;;;;8.13;4.08;;;;;;;-2.86;94.11;98890.83;1690951;84;21026;-67
2022/01/21 01:53:31;;;;;;;14.07;5.95;;;;;;;-2.93;94.03;98874.96;1708037;82;21150;-67
2022/01/21 01:55:58;;;;;;;12.13;4.70;;;;;;;-2.94;94.77;98897.73;1719915;83;21087;-68
2022/01/21 01:58:25;;;;;;;11.10;3.80;;;;;;;-2.98;93.81;98894.30;1719776;83;21071;-68
2022/01/21 02:00:51;;;;;;;13.20;4.70;;;;;;;-3.02;92.18;98902.03;1710033;83;21522;-70
2022/01/21 02:03:17;;;;;;;13.25;4.47;;;;;;;-3.06;93.07;98887.44;1690803;84;21054;-68
2022/01/21 02:05:44;;;;;;;11.18;4.78;;;;;;;-3.09;92.44;98887.45;1690992;84;21149;-69
2022/01/21 02:08:11;;;;;;;11.48;4.62;;;;;;;-3.10;92.74;98878.88;1690900;84;21050;-68
2022/01/21 02:10:40;;;;;;;11.88;5.08;;;;;;;-3.13;92.17;98885.73;1657629;85;21605;-67
2022/01/21 02:13:19;;;;;;;11.57;4.78;;;;;;;-3.20;91.12;98878.45;1690822;83;21298;-67
2022/01/21 02:15:35;;;;;;;11.25;4.72;;;;;;;-3.22;92.40;98875.90;1654990;86;21036;-67
2022/01/21 02:23:32;;;;;;;10.95;4.10;;;;;;;-3.31;92.08;98882.35;1685277;85;21332;-68
2022/01/21 02:26:01;;;;;;;10.80;4.50;;;;;;;-3.33;92.17;98878.06;1720133;83;21063;-67
2022/01/21 02:28:28;;;;;;;10.77;4.30;;;;;;;-3.35;92.41;98872.06;1701666;83;21059;-66
2022/01/21 02:30:56;;;;;;;10.28;3.87;;;;;;;-3.42;92.24;98866.91;1719685;83;21199;-66
2022/01/21 02:33:24;;;;;;;14.47;4.00;;;;;;;-3.46;92.62;98864.34;1719470;82;21618;-68
2022/01/21 02:35:50;;;;;;;8.60;3.62;;;;;;;-3.50;93.19;98862.62;1719566;82;21079;-67
2022/01/21 02:38:19;;;;;;;13.22;4.42;;;;;;;-3.53;94.09;98865.20;1719977;83;21097;-67
2022/01/21 02:40:45;;;;;;;8.20;3.65;;;;;;;-3.56;92.70;98860.06;1719818;83;21067;-65
2022/01/21 02:43:14;;;;;;;9.18;4.65;;;;;;;-3.62;91.71;98858.34;1719682;82;21123;-66
2022/01/21 02:45:45;;;;;;;11.43;4.07;;;;;;;-3.65;91.79;98866.92;1718197;83;21574;-67
2022/01/21 02:48:11;;;;;;;8.80;3.90;;;;;;;-3.67;93.65;98864.77;1715783;82;21078;-66
2022/01/21 02:50:39;;;;;;;6.73;3.83;;;;;;;-3.74;90.83;98857.91;1700426;83;21019;-67
2022/01/21 02:53:25;;;;;;;12.13;4.60;;;;;;;-3.75;91.14;98854.93;1710288;83;21646;-66
2022/01/21 02:55:40;;;;;;;9.93;4.53;;;;;;;-3.77;91.50;98857.05;1674214;85;21207;-67
2022/01/21 02:58:06;;;;;;;9.20;3.90;;;;;;;-3.81;91.05;98863.48;1710377;83;21720;-66
2022/01/21 03:00:34;;;;;;;8.90;3.87;;;;;;;-3.82;91.07;98860.90;1700124;83;21094;-65
2022/01/21 03:03:04;;;;;;;9.17;4.47;;;;;;;-3.84;91.25;98853.20;1710483;82;21110;-66
2022/01/21 03:05:34;;;;;;;9.73;4.33;;;;;;;-3.84;91.88;98863.50;1676582;85;21081;-65
2022/01/21 03:08:02;;;;;;;11.50;4.50;;;;;;;-3.82;92.60;98849.33;1710510;83;21142;-65
2022/01/21 03:10:31;;;;;;;9.27;3.43;;;;;;;-3.83;93.33;98838.62;1676236;85;21046;-69
2022/01/21 03:12:59;;;;;;;7.25;3.67;;;;;;;-3.81;94.24;98842.05;1676094;85;21097;-68
2022/01/21 03:15:27;;;;;;;14.35;4.00;;;;;;;-3.85;94.12;98831.33;1710784;83;21502;-68
2022/01/21 03:17:54;;;;;;;10.50;4.40;;;;;;;-3.86;93.13;98828.34;1710463;83;21132;-68
2022/01/21 03:20:20;;;;;;;9.43;4.10;;;;;;;-3.88;93.54;98831.34;1673523;85;21124;-68
2022/01/21 03:22:48;;;;;;;10.43;4.57;;;;;;;-3.87;95.24;98824.03;1677108;85;21038;-67
2022/01/21 03:25:14;;;;;;;10.87;4.03;;;;;;;-3.88;93.91;98815.91;1677308;85;22268;-67
2022/01/21 03:27:41;;;;;;;9.80;4.00;;;;;;;-3.89;94.30;98815.45;1677143;85;21635;-68
2022/01/21 03:30:10;;;;;;;6.57;3.43;;;;;;;-3.92;93.46;98809.89;1677070;85;21065;-68
2022/01/21 03:32:42;;;;;;;10.40;3.70;;;;;;;-3.94;93.15;98804.32;1676879;84;21147;-68
2022/01/21 03:35:11;;;;;;;8.80;4.40;;;;;;;-3.96;93.37;98804.31;1677296;85;21009;-67
2022/01/21 03:37:38;;;;;;;10.47;4.00;;;;;;;-3.97;93.41;98799.19;1677290;85;21085;-67
2022/01/21 03:40:08;;;;;;;8.30;3.90;;;;;;;-3.96;92.95;98803.46;1677228;85;21136;-68
2022/01/21 03:42:35;;;;;;;11.68;3.98;;;;;;;-3.96;92.76;98804.75;1648335;85;21134;-67
2022/01/21 03:45:05;;;;;;;14.70;4.70;;;;;;;-3.91;93.99;98801.73;1664392;85;22362;-69
2022/01/21 03:47:32;;;;;;;8.68;4.03;;;;;;;-3.87;94.17;98811.17;1634618;86;21681;-66
2022/01/21 03:50:18;;;;;;;8.73;4.23;;;;;;;-3.84;93.52;98800.47;1671249;85;21113;-66
2022/01/21 03:52:29;;;;;;;10.28;4.12;;;;;;;-3.78;92.60;98799.59;1669055;85;21105;-66
2022/01/21 03:54:55;;;;;;;7.57;4.17;;;;;;;-3.72;94.01;98797.47;1672195;85;21633;-66
2022/01/21 03:57:22;;;;;;;7.03;2.67;;;;;;;-3.66;93.17;98794.45;1672016;85;21464;-67
2022/01/21 03:59:49;;;;;;;12.77;4.40;;;;;;;-3.62;91.98;98784.56;1672096;85;21070;-68
2022/01/21 04:02:16;;;;;;;8.10;3.60;;;;;;;-3.58;92.42;98790.58;1672270;85;21578;-67
2022/01/21 04:04:42;;;;;;;10.47;4.60;;;;;;;-3.55;92.35;98793.57;1686488;84;21032;-65
2022/01/21 04:07:09;;;;;;;11.37;4.13;;;;;;;-3.53;91.89;98800.42;1701794;84;21095;-66
2022/01/21 04:09:39;;;;;;;8.33;3.83;;;;;;;-3.51;91.27;98797.42;1701800;82;21159;-69
2022/01/21 04:12:09;;;;;;;6.90;3.33;;;;;;;-3.51;91.60;98787.56;1688549;83;21115;-68
2022/01/21 04:14:39;;;;;;;14.37;4.37;;;;;;;-3.52;90.79;98789.69;1688503;84;21104;-69
2022/01/21 04:17:07;;;;;;;15.57;5.13;;;;;;;-3.51;91.30;98781.98;1688409;84;21572;-69
2022/01/21 04:19:34;;;;;;;8.03;4.03;;;;;;;-3.51;91.41;98792.71;1688357;84;21123;-67
2022/01/21 04:22:02;;;;;;;10.03;4.10;;;;;;;-3.55;91.53;98786.70;1688657;84;21145;-67
2022/01/21 04:24:29;;;;;;;11.23;4.87;;;;;;;-3.56;92.09;98785.44;1688659;84;21096;-68
2022/01/21 04:26:55;;;;;;;12.87;5.17;;;;;;;-3.59;92.56;98780.72;1688723;84;21044;-69
2022/01/21 04:29:22;;;;;;;11.57;4.63;;;;;;;-3.64;92.86;98778.56;1688561;84;21214;-70
2022/01/21 04:31:50;;;;;;;12.50;4.20;;;;;;;-3.62;93.43;98788.42;1688657;83;21420;-68
2022/01/21 04:34:18;;;;;;;9.33;4.63;;;;;;;-3.67;94.69;98777.73;1688521;84;21138;-69
2022/01/21 04:36:46;;;;;;;8.80;4.37;;;;;;;-3.66;95.57;98790.60;1688819;84;21467;-68
2022/01/21 04:39:20;;;;;;;8.00;4.27;;;;;;;-3.64;96.27;98782.86;1688698;84;21065;-68
2022/01/21 04:49:47;;;;;;;;;;;;;;;-3.54;97.44;98788.84;1665332;85;21086;-68
2022/01/21 04:52:14;;;;;;;5.85;3.27;;;;;;;-3.56;98.68;98788.02;1677161;85;20631;-68
2022/01/21 04:54:43;;;;;;;10.83;5.40;;;;;;;-3.56;99.59;98781.58;1676900;85;21150;-69
2022/01/21 04:57:12;;;;;;;12.80;5.17;;;;;;;-3.56;100.00;98782.86;1676580;85;21129;-67
2022/01/21 04:59:40;;;;;;;10.03;4.57;;;;;;;-3.56;100.00;98789.30;1650061;86;21556;-67
2022/01/21 05:02:09;;;;;;;14.47;5.20;;;;;;;-3.59;100.00;98779.84;1657111;85;21097;-66
2022/01/21 05:04:36;;;;;;;13.17;4.70;;;;;;;-3.59;100.00;98792.30;1647695;85;21085;-70
2022/01/21 05:07:06;;;;;;;13.70;5.47;;;;;;;-3.64;100.00;98790.14;1675681;85;21072;-67
2022/01/21 05:09:35;;;;;;;12.43;4.90;;;;;;;-3.64;100.00;98783.70;1671534;84;21126;-68
2022/01/21 05:12:09;;;;;;;11.17;4.03;;;;;;;-3.66;100.00;98790.60;1675350;84;21174;-70
2022/01/21 05:17:28;;;;;;;9.57;5.20;;;;;;;-3.67;100.00;98782.44;1674176;85;21074;-68
2022/01/21 05:19:55;;;;;;;11.17;5.33;;;;;;;-3.66;100.00;98782.00;1675601;85;21097;-67
2022/01/21 05:22:21;;;;;;;9.83;4.27;;;;;;;-3.66;100.00;98777.73;1675914;85;21593;-69
2022/01/21 05:24:49;;;;;;;11.13;5.33;;;;;;;-3.65;100.00;98785.87;1677301;85;22314;-67
2022/01/21 05:27:16;;;;;;;18.17;5.20;;;;;;;-3.64;100.00;98774.70;1677118;85;21262;-68
2022/01/21 05:29:44;;;;;;;17.60;5.53;;;;;;;-3.63;100.00;98781.58;1677335;85;21090;-67
2022/01/21 05:32:12;;;;;;;12.60;4.93;;;;;;;-3.63;100.00;98771.72;1673591;84;21073;-64
2022/01/21 05:34:41;;;;;;;9.27;4.33;;;;;;;-3.63;100.00;98772.57;1676532;85;21073;-68
2022/01/21 05:37:10;;;;;;;22.13;7.83;;;;;;;-3.65;100.00;98771.72;1655036;85;21982;-67
2022/01/21 05:39:47;;;;;;;21.63;6.90;;;;;;;-3.63;100.00;98779.00;1612515;88;21258;-70
2022/01/21 05:42:22;;;;;;;14.00;6.10;;;;;;;-3.60;100.00;98775.56;1710035;82;21584;-68
2022/01/21 05:47:22;;;;;;;17.63;6.70;;;;;;;-3.55;100.00;98804.72;1710735;82;21679;-68
2022/01/21 05:49:51;;;;;;;21.37;8.00;;;;;;;-3.54;100.00;98793.98;1649219;84;21960;-68
2022/01/21 05:52:34;;;;;;;18.17;7.53;;;;;;;-3.50;100.00;98795.70;1687954;83;21116;-66
2022/01/21 05:54:57;;;;;;;13.13;5.33;;;;;;;-3.49;100.00;98785.41;1684511;83;21013;-68
2022/01/21 05:57:26;;;;;;;13.37;6.20;;;;;;;-3.46;100.00;98803.84;1678441;84;21079;-68
2022/01/21 05:59:52;;;;;;;14.00;6.60;;;;;;;-3.45;100.00;98792.68;1688385;84;21111;-69
2022/01/21 06:02:20;;;;;;;11.77;5.20;;;;;;;-3.43;100.00;98802.55;1686830;84;21203;-68
2022/01/21 06:04:50;;;;;;;25.65;9.03;;;;;;;-3.43;100.00;98790.56;1690934;83;21075;-68
2022/01/21 06:07:15;;;;;;;33.00;11.03;;;;;;;-3.41;100.00;98782.81;1688019;84;21493;-67
2022/01/21 06:09:43;;;;;;;26.73;9.00;;;;;;;-3.41;100.00;98786.23;1687856;83;21103;-65
2022/01/21 06:12:10;;;;;;;34.85;12.40;;;;;;;-3.46;100.00;98784.55;1687882;84;21103;-65
2022/01/21 06:14:39;;;;;;;50.40;14.83;;;;;;;-3.47;100.00;98782.41;1686712;84;21155;-64
2022/01/21 06:17:05;;;;;;;41.83;13.60;;;;;;;-3.46;100.00;98784.55;1667102;85;21571;-65
2022/01/21 06:19:32;;;;;;;34.23;12.63;;;;;;;-3.45;100.00;98778.52;1683288;83;21067;-65
2022/01/21 06:21:58;;;;;;;33.88;13.05;;;;;;;-3.50;100.00;98781.11;1685897;84;21595;-66
2022/01/21 06:24:24;;;;;;;58.77;19.37;;;;;;;-3.49;100.00;98785.41;1684688;84;21067;-66
2022/01/21 06:26:51;;;;;;;23.17;10.03;;;;;;;-3.49;100.00;98781.98;1687013;84;21514;-67
2022/01/21 06:29:17;;;;;;;41.30;13.40;;;;;;;-3.50;100.00;98782.39;1686102;84;21067;-65
2022/01/21 06:31:43;;;;;;;35.80;12.03;;;;;;;-3.49;100.00;98776.84;1688052;83;21095;-67
2022/01/21 06:34:10;;;;;;;24.37;9.47;;;;;;;-3.45;100.00;98778.52;1687946;84;21005;-66
2022/01/21 06:36:36;;;;;;;18.13;7.20;;;;;;;-3.42;100.00;98777.25;1688342;84;21071;-65
2022/01/21 06:39:03;;;;;;;25.57;8.53;;;;;;;-3.39;100.00;98778.08;1689855;83;21513;-66
2022/01/21 06:41:30;;;;;;;21.82;7.55;;;;;;;-3.35;100.00;98785.38;1688011;84;21517;-66
2022/01/21 06:43:56;;;;;;;20.02;8.08;;;;;;;-3.34;100.00;98780.64;1685697;83;21559;-65
2022/01/21 06:46:23;;;;;;;15.43;8.13;;;;;;;-3.30;100.00;98782.36;1684961;84;21417;-65
2022/01/21 06:48:49;;;;;;;9.85;4.20;;;;;;;-3.28;100.00;98781.08;1686397;82;21199;-67
2022/01/21 06:51:16;;;;;;;22.58;9.85;;;;;;;-3.26;100.00;98779.36;1711363;82;22118;-65
2022/01/21 06:53:42;;;;;;;13.95;6.37;;;;;;;-3.20;100.00;98775.05;1710465;82;21057;-65
2022/01/21 06:56:08;;;;;;;28.95;8.55;;;;;;;-3.16;100.00;98781.87;1711484;82;21081;-65
2022/01/21 06:58:35;;;;;;;17.43;7.40;;;;;;;-3.14;100.00;98782.31;1676554;85;21046;-67
2022/01/21 07:01:02;;;;;;;46.20;16.60;;;;;;;-3.11;100.00;98788.73;1678216;84;22149;-66
2022/01/21 07:03:29;;;;;;;31.87;13.72;;;;;;;-3.09;100.00;98772.41;1711627;83;21160;-66
2022/01/21 07:05:55;;;;;;;35.00;11.75;;;;;;;-3.00;100.00;98779.25;1710995;82;21062;-65
2022/01/21 07:08:21;;;;;;;91.75;32.00;;;;;;;-2.97;100.00;98785.27;1710500;82;21058;-67
2022/01/21 07:10:48;;;;;;;91.92;25.23;;;;;;;-2.95;100.00;98789.95;1711678;82;21513;-66
2022/01/21 07:13:14;;;;;;;72.53;22.80;;;;;;;-2.90;100.00;98777.48;1711352;83;21153;-65
2022/01/21 07:15:41;;;;;;;64.47;22.22;;;;;;;-2.89;100.00;98785.22;1711644;83;21962;-66
2022/01/21 07:18:07;;;;;;;52.50;17.32;;;;;;;-2.86;100.00;98782.61;1711834;82;21635;-65
2022/01/21 07:20:35;;;;;;;39.88;15.40;;;;;;;-2.84;100.00;98786.05;1711818;83;21061;-65
2022/01/21 07:23:02;;;;;;;25.48;8.93;;;;;;;-2.73;100.00;98795.02;1711878;83;21081;-65
2022/01/21 07:25:29;;;;;;;47.65;16.65;;;;;;;-2.56;100.00;98775.59;1657114;85;21136;-65
2022/01/21 07:27:55;;;;;;;26.80;9.90;;;;;;;-2.40;100.00;98781.08;1711616;83;21758;-66
2022/01/21 07:30:21;;;;;;;27.52;10.78;;;;;;;-2.01;100.00;98786.81;1701618;82;21073;-65
2022/01/21 07:32:50;;;;;;;15.32;6.83;;;;;;;-1.74;100.00;98782.30;1711597;83;21176;-65
2022/01/21 07:35:17;;;;;;;28.45;10.05;;;;;;;-1.52;97.43;98779.06;1676400;84;21135;-65
2022/01/21 07:37:43;;;;;;;15.38;6.92;;;;;;;-1.25;97.05;98782.25;1706796;83;21652;-66
2022/01/21 07:40:11;;;;;;;18.50;7.83;;;;;;;-1.13;94.58;98780.39;1703695;83;21611;-65
2022/01/21 07:42:42;;;;;;;12.07;4.90;;;;;;;-1.10;94.41;98771.75;1684102;84;21062;-66
2022/01/21 07:45:09;;;;;;;29.60;11.13;;;;;;;-1.14;93.98;98786.42;1704101;83;21046;-67
2022/01/21 07:47:36;;;;;;;60.15;21.00;;;;;;;-1.24;95.07;98791.28;1707929;83;21053;-66
2022/01/21 07:50:03;;;;;;;52.70;18.15;;;;;;;-1.45;95.97;98785.03;1715930;83;21045;-66
2022/01/21 07:52:29;;;;;;;62.10;20.40;;;;;;;-1.52;97.08;98783.82;1724762;83;21809;-64
2022/01/21 07:54:56;;;;;;;74.92;23.95;;;;;;;-1.50;98.05;98783.34;1724761;83;21549;-65
2022/01/21 07:57:22;;;;;;;52.38;20.95;;;;;;;-1.55;98.15;98776.08;1723574;83;21057;-63
2022/01/21 07:59:49;;;;;;;98.87;30.08;;;;;;;-1.55;98.78;98777.38;1724901;82;21084;-65
2022/01/21 08:04:31;;;;;;;97.27;27.73;;;;;;;-1.40;99.08;98778.08;1828986;75;23034;-65
2022/01/21 08:06:57;;;;;;;38.75;13.60;;;;;;;-1.23;97.89;98774.05;1857476;76;21538;-65
2022/01/21 08:09:25;;;;;;;85.17;29.67;;;;;;;-1.01;96.22;98782.39;1882906;75;21196;-64
2022/01/21 08:11:53;;;;;;;46.20;16.63;;;;;;;-1.02;96.16;98778.95;1876044;76;21017;-65
2022/01/21 08:14:21;;;;;;;59.08;20.90;;;;;;;-1.10;95.32;98776.92;1850006;75;20988;-64
2022/01/21 08:16:49;;;;;;;30.52;12.37;;;;;;;-1.28;97.13;98781.84;1826300;78;21141;-65
2022/01/21 08:19:16;;;;;;;26.80;10.48;;;;;;;-1.17;96.60;98781.30;1847380;75;21048;-66
2022/01/21 08:21:42;;;;;;;20.62;8.58;;;;;;;-1.10;95.87;98770.02;1847681;77;21739;-66
2022/01/21 08:24:09;;;;;;;11.63;4.65;;;;;;;-0.94;94.34;98776.30;1840860;77;21363;-65
2022/01/21 08:26:36;;;;;;;14.13;5.37;;;;;;;-1.04;93.47;98768.23;1823051;77;21076;-65
2022/01/21 08:29:03;;;;;;;13.45;6.67;;;;;;;-1.22;93.51;98762.83;1856596;77;21013;-66
2022/01/21 08:31:30;;;;;;;12.60;5.85;;;;;;;-1.14;95.28;98769.62;1850741;77;20997;-65
2022/01/21 08:33:56;;;;;;;14.00;6.28;;;;;;;-1.00;95.71;98769.91;1849433;77;21523;-65
2022/01/21 08:36:23;;;;;;;16.32;6.72;;;;;;;-0.81;95.30;98761.48;1842541;77;21045;-64
2022/01/21 08:38:50;;;;;;;12.63;5.97;;;;;;;-0.60;93.03;98762.91;1852574;77;21486;-65
2022/01/21 08:41:17;;;;;;;48.02;17.07;;;;;;;-0.54;92.27;98758.96;1843694;77;21100;-64
2022/01/21 08:43:43;;;;;;;58.50;19.55;;;;;;;-0.40;92.99;98772.55;1839383;77;21093;-66
2022/01/21 08:46:10;;;;;;;29.07;10.65;;;;;;;-0.15;92.20;98763.12;1840234;77;21056;-66
2022/01/21 08:48:36;;;;;;;72.75;26.30;;;;;;;-0.18;90.18;98764.03;1809969;77;20985;-65
2022/01/21 08:51:08;;;;;;;27.73;9.95;;;;;;;-0.36;91.58;98769.05;1839251;77;21052;-68
2022/01/21 08:53:38;;;;;;;89.13;29.57;;;;;;;-0.31;92.51;98769.82;1817027;77;21073;-65
2022/01/21 08:56:08;;;;;;;62.85;22.95;;;;;;;-0.23;93.25;98777.45;1820658;77;21062;-65
2022/01/21 08:58:36;;;;;;;;;;;;;;;-0.20;93.49;98777.88;1859608;77;21158;-65
2022/01/21 09:01:06;;;;;;;20.00;7.90;;;;;;;-0.13;93.19;98778.20;1857677;77;21009;-66
2022/01/21 09:03:33;;;;;;;;;;;;;;;-0.04;93.02;98770.29;1848205;77;21079;-65
2022/01/21 09:05:59;;;;;;;17.00;5.97;;;;;;;0.03;89.88;98771.89;1826277;77;20185;-65
2022/01/21 09:08:28;;;;;;;16.75;8.18;;;;;;;-0.11;90.64;98757.88;1817927;77;21688;-65
2022/01/21 09:10:54;;;;;;;27.32;9.58;;;;;;;-0.05;90.74;98754.33;1838884;77;21868;-63
2022/01/21 09:13:22;;;;;;;17.37;7.62;;;;;;;-0.10;90.50;98763.91;1843307;77;21062;-66
2022/01/21 09:15:49;;;;;;;15.32;5.65;;;;;;;-0.25;91.10;98761.98;1840137;77;21533;-66
2022/01/21 09:18:19;;;;;;;14.98;6.80;;;;;;;-0.35;90.36;98764.27;1844228;77;21505;-65
2022/01/21 09:20:44;;;;;;;28.02;8.33;;;;;;;-0.50;90.60;98754.17;1820649;77;21077;-66
2022/01/21 09:23:10;;;;;;;37.73;13.55;;;;;;;-0.69;90.71;98747.96;1836115;77;21338;-65
2022/01/21 09:25:37;;;;;;;52.88;17.30;;;;;;;-0.81;91.64;98758.45;1830447;77;20991;-66
2022/01/21 09:28:04;;;;;;;46.60;15.15;;;;;;;-0.83;92.15;98760.19;1811761;77;21027;-63
2022/01/21 09:30:31;;;;;;;43.78;12.35;;;;;;;-0.97;92.73;98749.19;1854358;77;21022;-64
2022/01/21 09:32:58;;;;;;;114.25;37.20;;;;;;;-1.14;92.47;98744.23;1848688;77;21596;-65
2022/01/21 09:35:25;;;;;;;31.30;10.28;;;;;;;-1.19;93.96;98740.41;1857018;77;21117;-64
2022/01/21 09:37:52;;;;;;;76.47;25.30;;;;;;;-1.23;93.11;98742.61;1848934;77;21506;-64
2022/01/21 09:40:18;;;;;;;77.50;24.72;;;;;;;-1.29;93.88;98742.66;1827011;77;21017;-65
2022/01/21 09:42:45;;;;;;;62.27;21.27;;;;;;;-1.33;94.14;98729.39;1840835;77;21061;-65
2022/01/21 09:45:13;;;;;;;73.00;23.85;;;;;;;-1.36;94.54;98741.03;1857259;77;21054;-65
2022/01/21 09:47:47;;;;;;;42.27;15.23;;;;;;;-1.38;95.67;98736.31;1843633;77;21284;-65
2022/01/21 09:50:16;;;;;;;19.07;7.45;;;;;;;-1.44;96.57;98722.20;1821747;77;21061;-65
2022/01/21 09:52:49;;;;;;;23.75;7.70;;;;;;;-1.57;96.92;98736.95;1819629;77;21064;-65
2022/01/21 09:55:21;;;;;;;17.32;7.00;;;;;;;-1.61;98.06;98723.24;1858505;77;21092;-65
2022/01/21 09:57:50;;;;;;;16.60;6.40;;;;;;;-1.71;99.81;98731.94;1850446;77;21026;-64
2022/01/21 10:00:18;;;;;;;17.17;7.50;;;;;;;-1.78;100.00;98721.25;1857172;77;21517;-64
2022/01/21 10:02:45;;;;;;;15.78;6.62;;;;;;;-1.81;100.00;98731.62;1852097;77;21127;-66
2022/01/21 10:05:13;;;;;;;54.13;19.60;;;;;;;-1.84;100.00;98732.50;1846250;77;22082;-66
2022/01/21 10:07:40;;;;;;;45.17;15.23;;;;;;;-1.96;100.00;98730.86;1845112;75;21087;-65
2022/01/21 10:10:08;;;;;;;18.17;7.42;;;;;;;-1.98;100.00;98733.92;1891978;75;21103;-64
2022/01/21 10:12:40;;;;;;;150.45;46.83;;;;;;;-2.06;100.00;98726.67;1880741;75;21086;-64
2022/01/21 10:15:07;;;;;;;134.97;39.58;;;;;;;-2.11;100.00;98734.89;1848361;77;21066;-65
2022/01/21 10:17:36;;;;;;;77.58;26.12;;;;;;;-2.16;100.00;98733.64;1855948;77;21026;-64
2022/01/21 10:20:21;;;;;;;96.47;31.73;;;;;;;-2.21;100.00;98731.95;1822958;77;21064;-66
2022/01/21 10:23:03;;;;;;;34.55;11.30;;;;;;;-2.29;100.00;98729.88;1830705;77;21096;-65
2022/01/21 10:25:30;;;;;;;24.37;10.30;;;;;;;-2.32;100.00;98727.73;1812664;77;22747;-65
2022/01/21 10:28:24;;;;;;;20.92;10.03;;;;;;;-2.28;100.00;98731.58;1810617;78;21077;-64
2022/01/21 10:30:48;;;;;;;15.38;7.12;;;;;;;-2.25;100.00;98731.58;1770492;80;21058;-65
2022/01/21 10:33:23;;;;;;;90.12;27.90;;;;;;;-2.27;100.00;98720.41;1806073;78;21033;-65
2022/01/21 10:36:08;;;;;;;60.25;21.12;;;;;;;-2.25;100.00;98710.94;1775231;80;21056;-66
2022/01/21 10:38:45;;;;;;;181.32;57.00;;;;;;;-2.17;100.00;98712.56;1777988;80;21116;-65
2022/01/21 10:41:15;;;;;;;104.05;32.88;;;;;;;-2.10;100.00;98713.37;1788972;79;21099;-64
2022/01/21 10:43:43;;;;;;;49.08;19.60;;;;;;;-2.08;100.00;98705.19;1792469;78;21123;-66
2022/01/21 10:46:16;;;;;;;47.33;18.05;;;;;;;-2.12;100.00;98709.95;1799423;79;21005;-66
2022/01/21 10:49:05;;;;;;;33.67;13.00;;;;;;;-2.08;100.00;98719.38;1799801;79;21043;-65
2022/01/21 10:51:34;;;;;;;20.80;6.12;;;;;;;-2.05;100.00;98716.76;1785485;78;21552;-64
2022/01/21 10:54:21;;;;;;;26.25;10.00;;;;;;;-2.03;100.00;98712.88;1795164;78;21544;-65
2022/01/21 10:57:15;;;;;;;117.57;36.05;;;;;;;-2.04;100.00;98715.91;1790038;79;21491;-64
2022/01/21 11:00:06;;;;;;;172.22;53.05;;;;;;;-2.00;100.00;98715.02;1796840;79;21068;-65
2022/01/21 11:02:50;;;;;;;29.92;10.32;;;;;;;-1.97;100.00;98722.72;1792808;79;21056;-65
2022/01/21 11:05:36;;;;;;;18.20;8.40;;;;;;;-1.99;100.00;98720.58;1793194;79;21152;-66
2022/01/21 11:08:02;;;;;;;22.75;8.15;;;;;;;-2.05;100.00;98712.89;1807620;78;21117;-65
2022/01/21 11:10:39;;;;;;;19.30;7.03;;;;;;;-2.04;100.00;98714.62;1804646;79;21003;-66
2022/01/21 11:13:18;;;;;;;73.80;22.50;;;;;;;-2.02;100.00;98708.16;1813708;79;21127;-65
2022/01/21 11:15:58;;;;;;;117.75;37.03;;;;;;;-2.05;100.00;98713.33;1813727;77;21003;-66
2022/01/21 11:18:27;;;;;;;33.53;12.13;;;;;;;-2.12;100.00;98707.36;1810075;79;21151;-66
2022/01/21 11:21:10;;;;;;;69.58;22.82;;;;;;;-2.17;100.00;98706.56;1802510;78;21065;-65
2022/01/21 11:23:33;;;;;;;34.35;12.18;;;;;;;-2.22;100.00;98714.33;1804520;78;21746;-66
2022/01/21 11:26:02;;;;;;;35.13;10.53;;;;;;;-2.23;100.00;98714.34;1808980;79;21052;-65
2022/01/21 11:28:48;;;;;;;23.67;10.58;;;;;;;-2.28;100.00;98709.66;1803050;79;21585;-67
2022/01/21 11:31:22;;;;;;;14.87;5.87;;;;;;;-2.26;100.00;98710.50;1791040;79;21234;-64
2022/01/21 11:33:50;;;;;;;56.40;19.02;;;;;;;-2.27;100.00;98713.97;1804312;79;21042;-64
2022/01/21 11:36:18;;;;;;;49.75;16.55;;;;;;;-2.27;100.00;98721.70;1809227;79;21436;-65
2022/01/21 11:38:45;;;;;;;90.40;32.08;;;;;;;-2.23;100.00;98714.34;1804435;79;21077;-65
2022/01/21 11:41:16;;;;;;;31.05;10.72;;;;;;;-2.18;100.00;98717.76;1790161;79;21081;-64
2022/01/21 11:43:49;;;;;;;110.85;35.17;;;;;;;-2.21;100.00;98713.89;1814224;79;21062;-65
2022/01/21 11:48:58;;;;;;;43.98;17.35;;;;;;;-2.28;100.00;98714.38;1801841;79;22390;-65
2022/01/21 11:51:34;;;;;;;52.58;18.40;;;;;;;-2.35;100.00;98709.73;1805770;79;21166;-65
2022/01/21 11:54:10;;;;;;;22.60;10.10;;;;;;;-2.32;100.00;98703.24;1811046;78;21065;-65
2022/01/21 11:57:02;;;;;;;35.28;9.90;;;;;;;-2.29;100.00;98707.95;1814536;79;21091;-65
2022/01/21 11:59:41;;;;;;;76.45;19.87;;;;;;;-2.28;100.00;98710.95;1814248;79;21522;-64
2022/01/21 12:02:22;;;;;;;83.92;26.97;;;;;;;-2.29;100.00;98710.53;1804062;78;21057;-65
2022/01/21 12:05:09;;;;;;;81.20;26.02;;;;;;;-2.29;100.00;98696.35;1811569;78;21094;-66
2022/01/21 12:07:48;;;;;;;149.65;49.27;;;;;;;-2.29;100.00;98709.25;1810949;78;21057;-65
2022/01/21 12:10:26;;;;;;;52.17;12.80;;;;;;;-2.26;100.00;98711.35;1815839;78;21161;-65
2022/01/21 12:13:06;;;;;;;18.10;6.75;;;;;;;-2.21;100.00;98704.86;1805157;78;21124;-66
2022/01/21 12:20:58;;;;;;;64.27;20.80;;;;;;;-2.17;100.00;98694.51;1815083;78;21604;-64
2022/01/21 12:23:25;;;;;;;;;;;;;;;-2.14;100.00;98701.36;1816937;78;21194;-65
2022/01/21 12:26:26;;;;;;;207.77;62.98;;;;;;;-2.12;100.00;98718.56;1815909;78;20360;-65